createdAt,value
2017-07-11T00:00:25.677Z,0
2017-07-11T00:01:06.568Z,0
2017-07-11T00:01:47.461Z,0
2017-07-11T00:02:28.355Z,0
2017-07-11T00:03:09.252Z,0
2017-07-11T00:03:50.148Z,0
2017-07-11T00:04:31.046Z,0
2017-07-11T00:05:11.935Z,0
2017-07-11T00:05:52.853Z,0
2017-07-11T00:06:33.727Z,0
2017-07-11T00:07:14.612Z,0
2017-07-11T00:07:55.522Z,0
2017-07-11T00:08:36.394Z,0
2017-07-11T00:09:17.281Z,0
2017-07-11T00:09:58.185Z,0
2017-07-11T00:10:39.073Z,0
2017-07-11T00:11:19.956Z,0
2017-07-11T00:12:00.857Z,0
2017-07-11T00:12:41.748Z,0
2017-07-11T00:13:22.637Z,0
2017-07-11T00:14:03.530Z,0
2017-07-11T00:14:44.426Z,0
2017-07-11T00:15:25.315Z,0
2017-07-11T00:16:06.218Z,0
2017-07-11T00:16:47.101Z,0
2017-07-11T00:17:27.996Z,0
2017-07-11T00:18:08.884Z,0
2017-07-11T00:18:49.779Z,0
2017-07-11T00:19:30.665Z,0
2017-07-11T00:20:11.555Z,0
2017-07-11T00:20:52.451Z,0
2017-07-11T00:21:33.341Z,0
2017-07-11T00:22:14.226Z,0
2017-07-11T00:22:55.130Z,0
2017-07-11T00:23:36.023Z,0
2017-07-11T00:24:16.929Z,0
2017-07-11T00:24:57.808Z,0
2017-07-11T00:25:38.694Z,0
2017-07-11T00:26:19.586Z,0
2017-07-11T00:27:00.485Z,0
2017-07-11T00:27:41.370Z,0
2017-07-11T00:28:22.258Z,0
2017-07-11T00:29:03.157Z,0
2017-07-11T00:29:44.043Z,0
2017-07-11T00:30:24.935Z,0
2017-07-11T00:31:05.822Z,0
2017-07-11T00:31:46.718Z,0
2017-07-11T00:32:27.606Z,0
2017-07-11T00:33:08.495Z,0
2017-07-11T00:33:49.382Z,0
2017-07-11T00:34:30.264Z,0
2017-07-11T00:35:11.155Z,0
2017-07-11T00:35:52.046Z,0
2017-07-11T00:36:32.936Z,0
2017-07-11T00:37:13.831Z,0
2017-07-11T00:37:54.719Z,0
2017-07-11T00:38:35.604Z,0
2017-07-11T00:39:16.528Z,0
2017-07-11T00:39:57.393Z,0
2017-07-11T00:40:38.280Z,0
2017-07-11T00:41:19.167Z,0
2017-07-11T00:42:00.060Z,0
2017-07-11T00:42:40.954Z,0
2017-07-11T00:43:21.843Z,0
2017-07-11T00:44:02.730Z,0
2017-07-11T00:44:43.623Z,0
2017-07-11T00:45:24.564Z,0
2017-07-11T00:46:05.453Z,0
2017-07-11T00:46:46.358Z,0
2017-07-11T00:47:27.241Z,0
2017-07-11T00:48:08.130Z,0
2017-07-11T00:48:49.031Z,0
2017-07-11T00:49:29.920Z,0
2017-07-11T00:50:10.805Z,0
2017-07-11T00:50:51.691Z,0
2017-07-11T00:51:32.571Z,0
2017-07-11T00:52:13.457Z,0
2017-07-11T00:52:54.336Z,0
2017-07-11T00:53:35.227Z,0
2017-07-11T00:54:16.127Z,0
2017-07-11T00:54:57.018Z,0
2017-07-11T00:55:37.917Z,0
2017-07-11T00:56:18.805Z,0
2017-07-11T00:56:59.721Z,0
2017-07-11T00:57:40.616Z,0
2017-07-11T00:58:21.523Z,0
2017-07-11T00:59:02.437Z,0
2017-07-11T00:59:43.323Z,0
2017-07-11T01:00:24.198Z,0
2017-07-11T01:01:05.091Z,0
2017-07-11T01:01:46.008Z,0
2017-07-11T01:02:26.868Z,0
2017-07-11T01:03:07.744Z,0
2017-07-11T01:03:48.625Z,0
2017-07-11T01:04:29.515Z,0
2017-07-11T01:05:10.416Z,0
2017-07-11T01:05:51.307Z,0
2017-07-11T01:06:32.189Z,0
2017-07-11T01:07:13.081Z,0
2017-07-11T01:07:53.965Z,0
2017-07-11T01:08:34.856Z,0
2017-07-11T01:09:15.738Z,0
2017-07-11T01:09:56.625Z,0
2017-07-11T01:10:37.515Z,0
2017-07-11T01:11:18.399Z,0
2017-07-11T01:11:59.300Z,0
2017-07-11T01:12:40.209Z,0
2017-07-11T01:13:21.098Z,0
2017-07-11T01:14:01.984Z,0
2017-07-11T01:14:42.868Z,0
2017-07-11T01:15:23.767Z,0
2017-07-11T01:16:04.656Z,0
2017-07-11T01:16:45.545Z,0
2017-07-11T01:17:26.431Z,0
2017-07-11T01:18:07.409Z,0
2017-07-11T01:18:48.239Z,0
2017-07-11T01:19:29.131Z,0
2017-07-11T01:20:10.021Z,0
2017-07-11T01:20:50.915Z,0
2017-07-11T01:21:31.811Z,0
2017-07-11T01:22:12.709Z,0
2017-07-11T01:22:53.603Z,0
2017-07-11T01:23:34.500Z,0
2017-07-11T01:24:15.397Z,0
2017-07-11T01:24:56.285Z,0
2017-07-11T01:25:37.178Z,0
2017-07-11T01:26:18.058Z,0
2017-07-11T01:26:58.955Z,0
2017-07-11T01:27:39.881Z,0
2017-07-11T01:28:20.763Z,0
2017-07-11T01:29:01.657Z,0
2017-07-11T01:29:42.556Z,0
2017-07-11T01:30:23.433Z,0
2017-07-11T01:31:04.333Z,0
2017-07-11T01:31:45.234Z,0
2017-07-11T01:32:26.127Z,0
2017-07-11T01:33:07.007Z,0
2017-07-11T01:33:47.904Z,0
2017-07-11T01:34:28.792Z,0
2017-07-11T01:35:09.677Z,0
2017-07-11T01:35:50.566Z,0
2017-07-11T01:36:31.459Z,0
2017-07-11T01:37:12.352Z,0
2017-07-11T01:37:53.248Z,0
2017-07-11T01:38:34.138Z,0
2017-07-11T01:39:15.046Z,0
2017-07-11T01:39:55.923Z,0
2017-07-11T01:40:36.805Z,0
2017-07-11T01:41:17.695Z,0
2017-07-11T01:41:58.598Z,0
2017-07-11T01:42:39.478Z,0
2017-07-11T01:43:20.367Z,0
2017-07-11T01:44:01.254Z,0
2017-07-11T01:44:42.136Z,0
2017-07-11T01:45:23.031Z,0
2017-07-11T01:46:03.927Z,0
2017-07-11T01:46:44.829Z,0
2017-07-11T01:47:25.708Z,0
2017-07-11T01:48:06.602Z,0
2017-07-11T01:48:47.491Z,0
2017-07-11T01:49:28.373Z,0
2017-07-11T01:50:09.256Z,0
2017-07-11T01:50:50.147Z,0
2017-07-11T01:51:31.030Z,0
2017-07-11T01:52:11.926Z,0
2017-07-11T01:52:52.815Z,0
2017-07-11T01:53:33.703Z,0
2017-07-11T01:54:14.601Z,0
2017-07-11T01:54:55.496Z,0
2017-07-11T01:55:36.392Z,0
2017-07-11T01:56:17.293Z,0
2017-07-11T01:56:58.180Z,0
2017-07-11T01:57:39.072Z,0
2017-07-11T01:58:19.959Z,0
2017-07-11T01:59:00.847Z,0
2017-07-11T01:59:41.744Z,0
2017-07-11T02:00:22.622Z,0
2017-07-11T02:01:03.506Z,0
2017-07-11T02:01:44.401Z,0
2017-07-11T02:02:25.305Z,0
2017-07-11T02:03:06.190Z,0
2017-07-11T02:03:47.087Z,0
2017-07-11T02:04:27.976Z,0
2017-07-11T02:05:08.865Z,0
2017-07-11T02:05:49.763Z,0
2017-07-11T02:06:30.647Z,0
2017-07-11T02:07:11.543Z,0
2017-07-11T02:07:52.455Z,0
2017-07-11T02:08:33.341Z,0
2017-07-11T02:09:14.233Z,0
2017-07-11T02:09:55.128Z,0
2017-07-11T02:10:36.015Z,0
2017-07-11T02:11:16.909Z,0
2017-07-11T02:11:57.792Z,0
2017-07-11T02:12:38.682Z,0
2017-07-11T02:13:19.566Z,0
2017-07-11T02:14:00.453Z,0
2017-07-11T02:14:41.355Z,0
2017-07-11T02:15:22.204Z,0
2017-07-11T02:16:03.078Z,0
2017-07-11T02:16:43.965Z,0
2017-07-11T02:17:24.869Z,0
2017-07-11T02:18:05.754Z,0
2017-07-11T02:18:46.644Z,0
2017-07-11T02:19:27.534Z,0
2017-07-11T02:20:08.429Z,0
2017-07-11T02:20:49.316Z,0
2017-07-11T02:21:30.208Z,0
2017-07-11T02:22:11.102Z,0
2017-07-11T02:22:51.994Z,0
2017-07-11T02:23:32.882Z,0
2017-07-11T02:24:13.762Z,0
2017-07-11T02:24:54.640Z,0
2017-07-11T02:25:35.544Z,0
2017-07-11T02:26:16.434Z,0
2017-07-11T02:26:57.321Z,0
2017-07-11T02:27:38.217Z,0
2017-07-11T02:28:19.104Z,0
2017-07-11T02:28:59.997Z,0
2017-07-11T02:29:40.892Z,0
2017-07-11T02:30:21.808Z,0
2017-07-11T02:31:02.717Z,0
2017-07-11T02:31:43.599Z,0
2017-07-11T02:32:24.485Z,0
2017-07-11T02:33:05.373Z,0
2017-07-11T02:33:46.280Z,0
2017-07-11T02:34:27.160Z,0
2017-07-11T02:35:08.070Z,0
2017-07-11T02:35:48.961Z,0
2017-07-11T02:36:29.854Z,0
2017-07-11T02:37:10.752Z,0
2017-07-11T02:37:51.624Z,0
2017-07-11T02:38:32.511Z,0
2017-07-11T02:39:13.399Z,0
2017-07-11T02:39:54.300Z,0
2017-07-11T02:40:35.191Z,0
2017-07-11T02:41:16.077Z,0
2017-07-11T02:41:56.976Z,0
2017-07-11T02:42:37.878Z,0
2017-07-11T02:43:18.780Z,0
2017-07-11T02:43:59.660Z,0
2017-07-11T02:44:40.540Z,0
2017-07-11T02:45:21.437Z,0
2017-07-11T02:46:02.331Z,0
2017-07-11T02:46:43.209Z,0
2017-07-11T02:47:24.101Z,0
2017-07-11T02:48:04.985Z,0
2017-07-11T02:48:45.939Z,0
2017-07-11T02:49:26.765Z,0
2017-07-11T02:50:07.668Z,0
2017-07-11T02:50:48.547Z,0
2017-07-11T02:51:29.434Z,0
2017-07-11T02:52:10.334Z,0
2017-07-11T02:52:51.241Z,0
2017-07-11T02:53:32.133Z,0
2017-07-11T02:54:13.032Z,0
2017-07-11T02:54:53.919Z,0
2017-07-11T02:55:34.815Z,0
2017-07-11T02:56:15.696Z,0
2017-07-11T02:56:56.588Z,5
2017-07-11T02:57:37.477Z,5
2017-07-11T02:58:18.353Z,5
2017-07-11T02:58:59.238Z,5
2017-07-11T02:59:40.125Z,5
2017-07-11T03:00:21.007Z,5
2017-07-11T03:01:01.896Z,5
2017-07-11T03:01:42.797Z,5
2017-07-11T03:02:23.733Z,5
2017-07-11T03:03:04.573Z,5
2017-07-11T03:03:45.505Z,5
2017-07-11T03:04:26.391Z,5
2017-07-11T03:05:07.277Z,5
2017-07-11T03:05:48.177Z,5
2017-07-11T03:06:29.067Z,5
2017-07-11T03:07:09.957Z,5
2017-07-11T03:07:50.836Z,10
2017-07-11T03:08:31.742Z,10
2017-07-11T03:09:12.634Z,10
2017-07-11T03:09:53.532Z,10
2017-07-11T03:10:34.442Z,10
2017-07-11T03:11:15.334Z,10
2017-07-11T03:11:56.232Z,15
2017-07-11T03:12:37.120Z,15
2017-07-11T03:13:18.001Z,15
2017-07-11T03:13:58.887Z,15
2017-07-11T03:14:39.775Z,15
2017-07-11T03:15:20.674Z,20
2017-07-11T03:16:01.561Z,20
2017-07-11T03:16:42.449Z,20
2017-07-11T03:17:23.328Z,20
2017-07-11T03:18:04.232Z,20
2017-07-11T03:18:45.126Z,20
2017-07-11T03:19:26.019Z,20
2017-07-11T03:20:06.895Z,25
2017-07-11T03:20:47.782Z,25
2017-07-11T03:21:28.675Z,25
2017-07-11T03:22:09.567Z,25
2017-07-11T03:22:50.450Z,25
2017-07-11T03:23:31.325Z,25
2017-07-11T03:24:12.221Z,25
2017-07-11T03:24:53.116Z,25
2017-07-11T03:25:34.001Z,25
2017-07-11T03:26:14.886Z,25
2017-07-11T03:26:55.777Z,25
2017-07-11T03:27:36.664Z,25
2017-07-11T03:28:17.552Z,25
2017-07-11T03:28:58.444Z,25
2017-07-11T03:29:39.324Z,25
2017-07-11T03:30:20.219Z,25
2017-07-11T03:31:01.112Z,25
2017-07-11T03:31:42.009Z,30
2017-07-11T03:32:22.897Z,30
2017-07-11T03:33:03.768Z,30
2017-07-11T03:33:44.652Z,35
2017-07-11T03:34:25.533Z,35
2017-07-11T03:35:06.425Z,35
2017-07-11T03:35:47.302Z,40
2017-07-11T03:36:28.205Z,40
2017-07-11T03:37:09.101Z,45
2017-07-11T03:37:49.988Z,45
2017-07-11T03:38:30.876Z,45
2017-07-11T03:39:11.765Z,45
2017-07-11T03:39:52.649Z,50
2017-07-11T03:40:33.539Z,50
2017-07-11T03:41:14.432Z,50
2017-07-11T03:41:55.335Z,55
2017-07-11T03:42:36.212Z,55
2017-07-11T03:43:17.108Z,55
2017-07-11T03:43:58.002Z,60
2017-07-11T03:44:38.903Z,55
2017-07-11T03:45:19.797Z,55
2017-07-11T03:46:00.682Z,50
2017-07-11T03:46:41.577Z,55
2017-07-11T03:47:22.465Z,55
2017-07-11T03:48:03.365Z,55
2017-07-11T03:48:44.296Z,55
2017-07-11T03:49:25.136Z,60
2017-07-11T03:50:06.016Z,55
2017-07-11T03:50:46.902Z,55
2017-07-11T03:51:27.797Z,50
2017-07-11T03:52:08.684Z,55
2017-07-11T03:52:49.579Z,55
2017-07-11T03:53:30.457Z,50
2017-07-11T03:54:11.359Z,50
2017-07-11T03:54:52.247Z,50
2017-07-11T03:55:33.139Z,55
2017-07-11T03:56:14.025Z,50
2017-07-11T03:56:54.911Z,55
2017-07-11T03:57:35.797Z,55
2017-07-11T03:58:16.683Z,55
2017-07-11T03:58:57.573Z,60
2017-07-11T03:59:38.462Z,60
2017-07-11T04:00:19.337Z,60
2017-07-11T04:01:00.221Z,60
2017-07-11T04:01:41.111Z,60
2017-07-11T04:02:21.994Z,65
2017-07-11T04:03:02.892Z,65
2017-07-11T04:03:43.781Z,70
2017-07-11T04:04:24.667Z,65
2017-07-11T04:05:05.553Z,65
2017-07-11T04:05:46.446Z,65
2017-07-11T04:06:27.326Z,70
2017-07-11T04:07:08.214Z,75
2017-07-11T04:07:49.086Z,75
2017-07-11T04:08:30.025Z,75
2017-07-11T04:09:10.877Z,75
2017-07-11T04:09:51.752Z,80
2017-07-11T04:10:32.639Z,80
2017-07-11T04:11:13.530Z,80
2017-07-11T04:11:54.418Z,85
2017-07-11T04:12:35.293Z,85
2017-07-11T04:13:16.194Z,85
2017-07-11T04:13:57.094Z,85
2017-07-11T04:14:37.981Z,85
2017-07-11T04:15:18.874Z,85
2017-07-11T04:15:59.767Z,85
2017-07-11T04:16:40.661Z,85
2017-07-11T04:17:21.558Z,90
2017-07-11T04:18:02.452Z,90
2017-07-11T04:18:43.355Z,90
2017-07-11T04:19:24.241Z,85
2017-07-11T04:20:05.126Z,90
2017-07-11T04:20:46.013Z,90
2017-07-11T04:21:26.900Z,85
2017-07-11T04:22:07.831Z,80
2017-07-11T04:22:48.731Z,80
2017-07-11T04:23:29.611Z,80
2017-07-11T04:24:10.504Z,80
2017-07-11T04:24:51.397Z,85
2017-07-11T04:25:32.281Z,85
2017-07-11T04:26:13.182Z,85
2017-07-11T04:26:54.073Z,85
2017-07-11T04:27:35.002Z,85
2017-07-11T04:28:15.907Z,85
2017-07-11T04:28:56.792Z,80
2017-07-11T04:29:37.678Z,80
2017-07-11T04:30:18.570Z,80
2017-07-11T04:30:59.463Z,85
2017-07-11T04:31:40.352Z,85
2017-07-11T04:32:21.244Z,95
2017-07-11T04:33:02.144Z,100
2017-07-11T04:33:43.031Z,100
2017-07-11T04:34:23.919Z,100
2017-07-11T04:35:04.815Z,105
2017-07-11T04:35:45.706Z,110
2017-07-11T04:36:26.606Z,115
2017-07-11T04:37:07.548Z,120
2017-07-11T04:37:48.441Z,120
2017-07-11T04:38:29.336Z,130
2017-07-11T04:39:10.250Z,125
2017-07-11T04:39:51.139Z,120
2017-07-11T04:40:32.031Z,115
2017-07-11T04:41:12.926Z,120
2017-07-11T04:41:53.812Z,125
2017-07-11T04:42:34.694Z,130
2017-07-11T04:43:15.579Z,130
2017-07-11T04:43:56.475Z,125
2017-07-11T04:44:37.364Z,125
2017-07-11T04:45:18.250Z,130
2017-07-11T04:45:59.135Z,130
2017-07-11T04:46:40.028Z,135
2017-07-11T04:47:20.920Z,140
2017-07-11T04:48:01.811Z,140
2017-07-11T04:48:42.700Z,140
2017-07-11T04:49:23.598Z,150
2017-07-11T04:50:04.486Z,155
2017-07-11T04:50:45.372Z,155
2017-07-11T04:51:26.266Z,160
2017-07-11T04:52:07.149Z,170
2017-07-11T04:52:48.042Z,175
2017-07-11T04:53:28.957Z,175
2017-07-11T04:54:09.860Z,165
2017-07-11T04:54:50.762Z,160
2017-07-11T04:55:31.638Z,155
2017-07-11T04:56:12.539Z,160
2017-07-11T04:56:53.432Z,160
2017-07-11T04:57:34.320Z,155
2017-07-11T04:58:15.205Z,170
2017-07-11T04:58:56.096Z,175
2017-07-11T04:59:36.989Z,175
2017-07-11T05:00:17.885Z,175
2017-07-11T05:00:58.777Z,175
2017-07-11T05:01:39.672Z,180
2017-07-11T05:02:20.560Z,185
2017-07-11T05:03:01.459Z,190
2017-07-11T05:03:42.348Z,200
2017-07-11T05:04:23.233Z,200
2017-07-11T05:05:04.117Z,195
2017-07-11T05:05:45.010Z,195
2017-07-11T05:06:25.919Z,205
2017-07-11T05:07:06.816Z,210
2017-07-11T05:07:47.706Z,210
2017-07-11T05:08:28.597Z,220
2017-07-11T05:09:09.497Z,225
2017-07-11T05:09:50.394Z,225
2017-07-11T05:10:31.290Z,225
2017-07-11T05:11:12.177Z,225
2017-07-11T05:11:53.065Z,225
2017-07-11T05:12:33.962Z,230
2017-07-11T05:13:14.859Z,235
2017-07-11T05:13:55.752Z,235
2017-07-11T05:14:36.643Z,235
2017-07-11T05:15:17.535Z,235
2017-07-11T05:15:58.430Z,235
2017-07-11T05:16:39.349Z,235
2017-07-11T05:17:20.287Z,240
2017-07-11T05:18:01.128Z,240
2017-07-11T05:18:42.031Z,245
2017-07-11T05:19:22.928Z,245
2017-07-11T05:20:03.824Z,250
2017-07-11T05:20:44.714Z,250
2017-07-11T05:21:25.604Z,250
2017-07-11T05:22:06.487Z,250
2017-07-11T05:22:47.382Z,250
2017-07-11T05:23:28.275Z,245
2017-07-11T05:24:09.163Z,245
2017-07-11T05:24:50.059Z,245
2017-07-11T05:25:30.947Z,245
2017-07-11T05:26:11.831Z,245
2017-07-11T05:26:52.725Z,245
2017-07-11T05:27:33.608Z,250
2017-07-11T05:28:14.509Z,245
2017-07-11T05:28:55.408Z,245
2017-07-11T05:29:36.298Z,245
2017-07-11T05:30:17.181Z,245
2017-07-11T05:30:58.082Z,240
2017-07-11T05:31:38.971Z,240
2017-07-11T05:32:19.861Z,240
2017-07-11T05:33:00.753Z,245
2017-07-11T05:33:41.641Z,245
2017-07-11T05:34:22.531Z,250
2017-07-11T05:35:03.416Z,250
2017-07-11T05:35:44.307Z,250
2017-07-11T05:36:25.201Z,255
2017-07-11T05:37:06.088Z,255
2017-07-11T05:37:46.983Z,255
2017-07-11T05:38:27.876Z,255
2017-07-11T05:39:08.768Z,260
2017-07-11T05:39:49.657Z,260
2017-07-11T05:40:30.563Z,260
2017-07-11T05:41:11.447Z,260
2017-07-11T05:41:52.343Z,260
2017-07-11T05:42:33.236Z,260
2017-07-11T05:43:14.138Z,265
2017-07-11T05:43:55.028Z,265
2017-07-11T05:44:35.916Z,270
2017-07-11T05:45:16.813Z,270
2017-07-11T05:45:57.697Z,270
2017-07-11T05:46:38.588Z,275
2017-07-11T05:47:19.489Z,275
2017-07-11T05:48:00.380Z,275
2017-07-11T05:48:41.267Z,280
2017-07-11T05:49:22.173Z,280
2017-07-11T05:50:03.041Z,280
2017-07-11T05:50:43.939Z,285
2017-07-11T05:51:24.842Z,285
2017-07-11T05:52:05.734Z,285
2017-07-11T05:52:46.619Z,290
2017-07-11T05:53:27.515Z,295
2017-07-11T05:54:08.408Z,295
2017-07-11T05:54:49.288Z,300
2017-07-11T05:55:30.177Z,300
2017-07-11T05:56:11.074Z,305
2017-07-11T05:56:51.972Z,310
2017-07-11T05:57:32.898Z,315
2017-07-11T05:58:13.784Z,325
2017-07-11T05:58:54.668Z,330
2017-07-11T05:59:35.559Z,335
2017-07-11T06:00:16.453Z,340
2017-07-11T06:00:57.346Z,345
2017-07-11T06:01:38.247Z,350
2017-07-11T06:02:19.139Z,355
2017-07-11T06:03:00.041Z,355
2017-07-11T06:03:40.937Z,355
2017-07-11T06:04:21.831Z,355
2017-07-11T06:05:02.724Z,360
2017-07-11T06:05:43.645Z,365
2017-07-11T06:06:24.571Z,365
2017-07-11T06:07:05.422Z,365
2017-07-11T06:07:46.315Z,365
2017-07-11T06:08:27.199Z,370
2017-07-11T06:09:08.082Z,375
2017-07-11T06:09:48.978Z,375
2017-07-11T06:10:29.863Z,375
2017-07-11T06:11:10.774Z,385
2017-07-11T06:11:51.675Z,385
2017-07-11T06:12:32.564Z,385
2017-07-11T06:13:13.495Z,390
2017-07-11T06:13:54.399Z,395
2017-07-11T06:14:35.290Z,390
2017-07-11T06:15:16.198Z,390
2017-07-11T06:15:57.090Z,395
2017-07-11T06:16:38.018Z,400
2017-07-11T06:17:18.913Z,405
2017-07-11T06:17:59.816Z,410
2017-07-11T06:18:40.704Z,410
2017-07-11T06:19:21.605Z,410
2017-07-11T06:20:02.500Z,410
2017-07-11T06:20:43.380Z,400
2017-07-11T06:21:24.281Z,400
2017-07-11T06:22:05.165Z,385
2017-07-11T06:22:46.058Z,370
2017-07-11T06:23:26.968Z,350
2017-07-11T06:24:07.851Z,340
2017-07-11T06:24:48.748Z,335
2017-07-11T06:25:29.660Z,335
2017-07-11T06:26:10.559Z,340
2017-07-11T06:26:51.453Z,340
2017-07-11T06:27:32.341Z,345
2017-07-11T06:28:13.231Z,345
2017-07-11T06:28:54.126Z,345
2017-07-11T06:29:35.027Z,345
2017-07-11T06:30:15.920Z,350
2017-07-11T06:30:56.821Z,350
2017-07-11T06:31:37.726Z,355
2017-07-11T06:32:18.619Z,355
2017-07-11T06:32:59.525Z,360
2017-07-11T06:33:40.414Z,365
2017-07-11T06:34:21.314Z,375
2017-07-11T06:35:02.206Z,380
2017-07-11T06:35:43.099Z,395
2017-07-11T06:36:24.036Z,395
2017-07-11T06:37:04.898Z,400
2017-07-11T06:37:45.794Z,410
2017-07-11T06:38:26.692Z,455
2017-07-11T06:39:07.587Z,520
2017-07-11T06:39:48.485Z,555
2017-07-11T06:40:29.384Z,530
2017-07-11T06:41:10.286Z,555
2017-07-11T06:41:51.186Z,585
2017-07-11T06:42:32.083Z,655
2017-07-11T06:43:12.976Z,610
2017-07-11T06:43:53.870Z,640
2017-07-11T06:44:34.764Z,605
2017-07-11T06:45:15.666Z,575
2017-07-11T06:45:56.555Z,580
2017-07-11T06:46:37.454Z,610
2017-07-11T06:47:18.338Z,645
2017-07-11T06:47:59.242Z,635
2017-07-11T06:48:40.149Z,555
2017-07-11T06:49:21.045Z,535
2017-07-11T06:50:01.931Z,515
2017-07-11T06:50:42.826Z,710
2017-07-11T06:51:23.735Z,785
2017-07-11T06:52:04.633Z,770
2017-07-11T06:52:45.519Z,755
2017-07-11T06:53:26.425Z,975
2017-07-11T06:54:07.325Z,1015
2017-07-11T06:54:48.216Z,1045
2017-07-11T06:55:29.120Z,725
2017-07-11T06:56:10.048Z,670
2017-07-11T06:56:50.941Z,825
2017-07-11T06:57:31.840Z,845
2017-07-11T06:58:12.736Z,990
2017-07-11T06:58:53.628Z,1045
2017-07-11T06:59:34.517Z,1045
2017-07-11T07:00:15.408Z,1085
2017-07-11T07:00:56.310Z,1195
2017-07-11T07:01:37.202Z,1190
2017-07-11T07:02:18.092Z,1175
2017-07-11T07:02:58.976Z,1195
2017-07-11T07:03:39.880Z,1270
2017-07-11T07:04:20.747Z,1235
2017-07-11T07:05:01.649Z,1225
2017-07-11T07:05:42.544Z,1125
2017-07-11T07:06:23.471Z,1105
2017-07-11T07:07:04.345Z,1155
2017-07-11T07:07:45.238Z,1220
2017-07-11T07:08:26.137Z,1180
2017-07-11T07:09:07.035Z,1115
2017-07-11T07:09:47.939Z,1125
2017-07-11T07:10:28.849Z,1120
2017-07-11T07:11:09.725Z,1075
2017-07-11T07:11:50.622Z,1065
2017-07-11T07:12:31.518Z,1005
2017-07-11T07:13:12.426Z,955
2017-07-11T07:13:53.327Z,955
2017-07-11T07:14:34.214Z,960
2017-07-11T07:15:15.101Z,955
2017-07-11T07:15:56.002Z,925
2017-07-11T07:16:36.906Z,860
2017-07-11T07:17:17.799Z,845
2017-07-11T07:17:58.717Z,770
2017-07-11T07:18:39.632Z,740
2017-07-11T07:19:20.525Z,585
2017-07-11T07:20:01.425Z,470
2017-07-11T07:20:42.330Z,480
2017-07-11T07:21:23.224Z,495
2017-07-11T07:22:04.123Z,535
2017-07-11T07:22:45.013Z,635
2017-07-11T07:23:25.909Z,760
2017-07-11T07:24:06.818Z,800
2017-07-11T07:24:47.702Z,935
2017-07-11T07:25:28.597Z,1105
2017-07-11T07:26:09.497Z,1140
2017-07-11T07:26:50.371Z,1250
2017-07-11T07:27:31.276Z,1085
2017-07-11T07:28:12.174Z,1230
2017-07-11T07:28:53.070Z,1030
2017-07-11T07:29:33.971Z,1255
2017-07-11T07:30:14.863Z,1230
2017-07-11T07:30:55.764Z,1420
2017-07-11T07:31:36.658Z,1580
2017-07-11T07:32:17.539Z,1595
2017-07-11T07:32:58.429Z,1530
2017-07-11T07:33:39.322Z,1490
2017-07-11T07:34:20.212Z,1470
2017-07-11T07:35:01.113Z,1405
2017-07-11T07:37:20.422Z,1625
2017-07-11T07:38:01.313Z,1680
2017-07-11T07:38:42.221Z,1710
2017-07-11T07:39:23.129Z,1740
2017-07-11T07:40:04.027Z,1670
2017-07-11T07:40:44.927Z,1760
2017-07-11T07:41:25.827Z,1810
2017-07-11T07:42:06.721Z,1955
2017-07-11T07:42:47.626Z,2005
2017-07-11T07:43:28.510Z,2050
2017-07-11T07:44:09.415Z,1940
2017-07-11T07:44:50.305Z,1900
2017-07-11T07:45:31.227Z,1985
2017-07-11T07:46:12.126Z,2115
2017-07-11T07:46:53.025Z,2280
2017-07-11T07:47:33.915Z,2450
2017-07-11T07:48:14.838Z,2455
2017-07-11T07:48:55.740Z,2525
2017-07-11T07:49:36.642Z,2555
2017-07-11T07:50:17.530Z,2585
2017-07-11T07:50:58.426Z,2575
2017-07-11T07:51:39.334Z,2595
2017-07-11T07:52:20.230Z,2635
2017-07-11T07:53:01.139Z,2645
2017-07-11T07:53:42.047Z,2615
2017-07-11T07:54:22.939Z,2490
2017-07-11T07:55:03.835Z,1955
2017-07-11T07:55:44.736Z,1460
2017-07-11T07:56:25.646Z,1025
2017-07-11T07:57:06.541Z,820
2017-07-11T07:57:47.458Z,745
2017-07-11T07:58:28.356Z,715
2017-07-11T07:59:09.292Z,705
2017-07-11T07:59:50.195Z,695
2017-07-11T08:00:31.105Z,695
2017-07-11T08:01:12.023Z,705
2017-07-11T08:01:52.924Z,665
2017-07-11T08:02:33.835Z,675
2017-07-11T08:03:14.747Z,710
2017-07-11T08:03:55.659Z,695
2017-07-11T08:04:36.571Z,705
2017-07-11T08:05:17.488Z,700
2017-07-11T08:05:58.409Z,690
2017-07-11T08:06:39.321Z,680
2017-07-11T08:07:20.235Z,700
2017-07-11T08:08:01.140Z,660
2017-07-11T08:08:42.041Z,685
2017-07-11T08:09:22.942Z,735
2017-07-11T08:10:03.856Z,750
2017-07-11T08:10:44.736Z,805
2017-07-11T08:11:25.652Z,845
2017-07-11T08:12:06.572Z,865
2017-07-11T08:12:47.483Z,745
2017-07-11T08:13:28.394Z,835
2017-07-11T08:14:09.294Z,860
2017-07-11T08:14:50.204Z,870
2017-07-11T08:15:31.106Z,815
2017-07-11T08:16:12.027Z,855
2017-07-11T08:16:52.940Z,880
2017-07-11T08:17:33.826Z,785
2017-07-11T08:18:14.750Z,680
2017-07-11T08:18:55.669Z,735
2017-07-11T08:19:36.596Z,730
2017-07-11T08:20:17.496Z,2300
2017-07-11T08:20:58.396Z,2095
2017-07-11T08:21:39.285Z,2085
2017-07-11T08:22:20.185Z,2120
2017-07-11T08:23:01.091Z,2225
2017-07-11T08:23:41.993Z,2070
2017-07-11T08:24:22.899Z,2000
2017-07-11T08:25:03.793Z,2090
2017-07-11T08:25:44.689Z,2115
2017-07-11T08:26:25.593Z,2235
2017-07-11T08:27:06.482Z,2205
2017-07-11T08:27:47.419Z,2070
2017-07-11T08:28:28.309Z,2100
2017-07-11T08:29:09.212Z,2075
2017-07-11T08:29:50.101Z,2020
2017-07-11T08:30:31.026Z,2095
2017-07-11T08:31:11.937Z,2000
2017-07-11T08:31:52.845Z,1835
2017-07-11T08:32:33.748Z,1920
2017-07-11T08:33:14.658Z,1975
2017-07-11T08:33:55.570Z,1975
2017-07-11T08:34:36.472Z,1915
2017-07-11T08:35:17.369Z,1705
2017-07-11T08:35:58.270Z,1870
2017-07-11T08:36:39.190Z,1835
2017-07-11T08:37:20.087Z,1465
2017-07-11T08:38:01.022Z,1415
2017-07-11T08:38:41.909Z,1830
2017-07-11T08:39:22.817Z,1735
2017-07-11T08:40:03.728Z,1835
2017-07-11T08:40:44.637Z,1865
2017-07-11T08:41:25.547Z,2015
2017-07-11T08:42:06.478Z,2205
2017-07-11T08:42:47.391Z,1865
2017-07-11T08:43:28.296Z,2295
2017-07-11T08:44:09.206Z,2150
2017-07-11T08:44:50.091Z,2200
2017-07-11T08:45:30.997Z,2215
2017-07-11T08:46:11.905Z,2285
2017-07-11T08:46:52.806Z,2045
2017-07-11T08:47:33.711Z,2275
2017-07-11T08:48:14.607Z,2400
2017-07-11T08:48:55.494Z,2525
2017-07-11T08:49:36.400Z,2270
2017-07-11T08:50:17.308Z,2700
2017-07-11T08:50:58.222Z,2245
2017-07-11T08:51:39.134Z,2010
2017-07-11T08:52:20.036Z,1975
2017-07-11T08:53:00.982Z,2245
2017-07-11T08:53:41.887Z,2245
2017-07-11T08:54:22.801Z,2040
2017-07-11T08:55:03.721Z,2125
2017-07-11T08:55:44.628Z,2120
2017-07-11T08:56:25.536Z,2230
2017-07-11T08:57:06.481Z,2600
2017-07-11T08:57:47.372Z,2720
2017-07-11T08:58:28.276Z,2635
2017-07-11T08:59:09.187Z,2525
2017-07-11T08:59:50.087Z,2505
2017-07-11T09:00:31.011Z,2430
2017-07-11T09:01:11.932Z,2300
2017-07-11T09:01:52.842Z,2325
2017-07-11T09:02:33.745Z,2295
2017-07-11T09:03:14.665Z,2005
2017-07-11T09:03:55.559Z,2265
2017-07-11T09:04:36.457Z,2445
2017-07-11T09:05:17.367Z,2210
2017-07-11T09:05:58.274Z,2120
2017-07-11T09:06:39.183Z,2095
2017-07-11T09:07:20.102Z,2240
2017-07-11T09:08:01.008Z,2075
2017-07-11T09:08:41.913Z,2110
2017-07-11T09:09:22.828Z,2025
2017-07-11T09:10:03.742Z,2280
2017-07-11T09:10:44.653Z,2155
2017-07-11T09:11:25.563Z,1835
2017-07-11T09:12:06.469Z,2010
2017-07-11T09:12:47.386Z,2400
2017-07-11T09:13:28.289Z,2585
2017-07-11T09:14:09.197Z,2355
2017-07-11T09:14:50.107Z,2120
2017-07-11T09:15:31.013Z,2470
2017-07-11T09:16:11.913Z,2325
2017-07-11T09:16:52.817Z,2355
2017-07-11T09:17:33.716Z,2850
2017-07-11T09:18:14.627Z,2730
2017-07-11T09:18:55.507Z,2730
2017-07-11T09:19:36.415Z,2850
2017-07-11T09:20:17.317Z,2740
2017-07-11T09:20:58.227Z,2945
2017-07-11T09:21:39.149Z,3040
2017-07-11T09:22:20.049Z,3150
2017-07-11T09:23:00.963Z,2855
2017-07-11T09:23:41.868Z,2750
2017-07-11T09:24:22.780Z,2560
2017-07-11T09:25:03.689Z,2290
2017-07-11T09:25:44.601Z,2005
2017-07-11T09:26:25.512Z,2445
2017-07-11T09:27:06.423Z,3310
2017-07-11T09:27:47.328Z,2760
2017-07-11T09:28:28.241Z,1780
2017-07-11T09:29:09.149Z,1865
2017-07-11T09:29:50.048Z,2650
2017-07-11T09:30:30.987Z,3110
2017-07-11T09:31:11.893Z,2850
2017-07-11T09:31:52.807Z,3005
2017-07-11T09:32:33.719Z,3140
2017-07-11T09:33:14.625Z,3175
2017-07-11T09:33:55.529Z,3165
2017-07-11T09:34:36.444Z,3105
2017-07-11T09:35:17.355Z,3050
2017-07-11T09:35:58.273Z,2990
2017-07-11T09:36:39.192Z,2945